Seattle, Washington
Traffic Map
Current Weather Conditions
Seattle, Washington
Broken Clouds
Broken Clouds
21°
Feels Like: 21°
Wind Chill: 21° Ceiling: 3100
Heat Index: 21° Visibility: 10mi
Dew Point: 10° Wind: 13mph
Humidity: 49% Direction: 170° (S)
Pressure: 29.97in Gusts: 17mph
Raw Report DataKBFI 201817Z 17011G15KT 10SM BKN031 21/10 A2997 RMK AO2
Traffic Incident Summary
Active as of:
Severity:
Category:
InformationThere was an issue retrieving the traffic information for this location. Please try a different location or try again shortly.
Advertisements
Track Severe Weather on mobile